Time;durP1;ratioP1;P1;durP2;ratioP2;P2;SDS_P1;SDS_P2;PMS_P1;PMS_P2;Temp;Humidity;BMP_temperature;BMP_pressure;BME280_temperature;BME280_humidity;BME280_pressure;Samples;Min_cycle;Max_cycle;Signal;HPM_P1;HPM_P2
2022/11/18 00:00:33;;;;;;;5.85;3.50;;;;;;;;;;1750376;81;21023;-63
2022/11/18 00:03:01;;;;;;;7.42;4.17;;;;;;;;;;1756792;81;21039;-63
2022/11/18 00:05:26;;;;;;;5.78;3.52;;;;;;;;;;1757355;81;21017;-63
2022/11/18 00:07:53;;;;;;;6.60;3.70;;;;;;;;;;1764874;81;21004;-63
2022/11/18 00:10:19;;;;;;;5.97;3.72;;;;;;;;;;1757051;81;21075;-64
2022/11/18 01:22:09;;;;;;;8.48;5.33;;;;;;;;;;1757107;80;28133;-60
2022/11/18 01:24:36;;;;;;;6.92;4.80;;;;;;;;;;1730230;81;21034;-60
2022/11/18 01:27:02;;;;;;;7.15;4.72;;;;;;;;;;1734609;81;21013;-60
2022/11/18 01:29:29;;;;;;;6.45;4.75;;;;;;;;;;1787567;80;21060;-61
2022/11/18 01:31:55;;;;;;;7.62;4.70;;;;;;;;;;1754589;82;21570;-61
2022/11/18 01:34:21;;;;;;;5.35;3.98;;;;;;;;;;1747378;82;21061;-61
2022/11/18 01:36:51;;;;;;;6.50;4.12;;;;;;;;;;1759059;80;21029;-62
2022/11/18 01:39:17;;;;;;;6.75;4.90;;;;;;;;;;1767533;80;21015;-59
2022/11/18 01:41:43;;;;;;;7.80;4.67;;;;;;;;;;1728429;83;21076;-60
2022/11/18 01:44:28;;;;;;;9.00;4.60;;;;;;;;;;1723107;82;22175;-59
2022/11/18 01:46:55;;;;;;;6.92;4.85;;;;;;;;;;1752055;81;21020;-60
2022/11/18 01:49:21;;;;;;;7.45;4.22;;;;;;;;;;1753345;80;21048;-60
2022/11/18 01:51:48;;;;;;;6.42;4.33;;;;;;;;;;1724962;83;21040;-60
2022/11/18 01:54:18;;;;;;;4.70;3.55;;;;;;;;;;1776341;80;21000;-60
2022/11/18 01:56:47;;;;;;;8.08;4.20;;;;;;;;;;1768286;80;21044;-60
2022/11/18 01:59:14;;;;;;;7.60;4.45;;;;;;;;;;1785150;80;21013;-60
2022/11/18 02:04:36;;;;;;;7.92;4.75;;;;;;;;;;1787779;76;79344;-68
2022/11/18 02:07:03;;;;;;;7.58;4.60;;;;;;;;;;1815122;78;20995;-68
2022/11/18 02:09:31;;;;;;;7.12;4.40;;;;;;;;;;1769953;80;20992;-68
2022/11/18 02:11:57;;;;;;;11.95;5.03;;;;;;;;;;1795504;79;21039;-68
2022/11/18 02:14:30;;;;;;;8.40;4.42;;;;;;;;;;1815449;78;20992;-68
2022/11/18 02:16:57;;;;;;;;;;;;;;;;;;1777933;81;21033;-68
2022/11/18 02:19:25;;;;;;;6.33;4.10;;;;;;;;;;1793144;79;20135;-69
2022/11/18 02:22:02;;;;;;;6.22;3.55;;;;;;;;;;1805855;79;20989;-68
2022/11/18 02:24:35;;;;;;;4.58;3.15;;;;;;;;;;1796961;79;21612;-68
2022/11/18 02:27:20;;;;;;;8.08;5.03;;;;;;;;;;1776490;79;21094;-69
2022/11/18 02:30:04;;;;;;;9.13;4.00;;;;;;;;;;1824446;78;21040;-67
2022/11/18 02:32:35;;;;;;;5.37;3.55;;;;;;;;;;1807573;78;20988;-68
2022/11/18 02:35:06;;;;;;;5.10;3.62;;;;;;;;;;1805493;78;21008;-68
2022/11/18 02:37:35;;;;;;;8.05;4.45;;;;;;;;;;1809158;78;21485;-68
2022/11/18 02:40:22;;;;;;;7.72;4.67;;;;;;;;;;1809738;79;21047;-68
2022/11/18 02:42:50;;;;;;;6.75;4.40;;;;;;;;;;1789546;79;21047;-67
2022/11/18 02:45:18;;;;;;;5.90;3.80;;;;;;;;;;1806103;78;21035;-68
2022/11/18 02:47:45;;;;;;;6.92;3.72;;;;;;;;;;1804346;79;21028;-68
2022/11/18 02:50:13;;;;;;;6.62;3.62;;;;;;;;;;1802807;79;21023;-68
2022/11/18 02:52:40;;;;;;;9.08;4.78;;;;;;;;;;1804169;79;21096;-68
2022/11/18 02:55:08;;;;;;;6.62;4.33;;;;;;;;;;1805896;78;21047;-68
2022/11/18 02:57:34;;;;;;;7.37;3.65;;;;;;;;;;1773556;80;21055;-69
2022/11/18 03:00:00;;;;;;;5.75;3.70;;;;;;;;;;1817823;78;21069;-68
2022/11/18 03:02:27;;;;;;;8.55;4.12;;;;;;;;;;1822767;78;21028;-68
2022/11/18 03:04:54;;;;;;;6.65;4.15;;;;;;;;;;1850371;76;21060;-68
2022/11/18 03:07:23;;;;;;;7.33;4.08;;;;;;;;;;1843702;77;21478;-68
2022/11/18 03:09:50;;;;;;;8.58;4.47;;;;;;;;;;1839380;77;21042;-68
2022/11/18 03:12:18;;;;;;;6.97;3.92;;;;;;;;;;1831266;77;21052;-68
2022/11/18 03:14:48;;;;;;;7.80;4.22;;;;;;;;;;1861649;77;21011;-68
2022/11/18 03:17:31;;;;;;;5.53;4.05;;;;;;;;;;1810086;79;21519;-68
2022/11/18 03:20:15;;;;;;;7.08;3.83;;;;;;;;;;1707997;84;20997;-67
2022/11/18 03:22:46;;;;;;;6.78;3.90;;;;;;;;;;1764124;80;21043;-67
2022/11/18 03:25:15;;;;;;;6.42;4.42;;;;;;;;;;1792944;80;21032;-68
2022/11/18 03:27:43;;;;;;;6.33;4.00;;;;;;;;;;1814716;78;20968;-67
2022/11/18 03:30:11;;;;;;;6.60;3.92;;;;;;;;;;1803971;78;21031;-66
2022/11/18 03:32:40;;;;;;;7.28;4.92;;;;;;;;;;1807533;78;21546;-67
2022/11/18 03:35:08;;;;;;;7.45;4.42;;;;;;;;;;1817788;78;21012;-68
2022/11/18 03:37:35;;;;;;;7.58;4.12;;;;;;;;;;1771002;80;21086;-67
2022/11/18 03:40:06;;;;;;;5.70;4.00;;;;;;;;;;1789579;80;21570;-68
2022/11/18 03:42:34;;;;;;;6.25;4.00;;;;;;;;;;1798695;79;21004;-68
2022/11/18 03:45:05;;;;;;;6.87;4.50;;;;;;;;;;1794833;79;21032;-67
2022/11/18 03:47:31;;;;;;;5.50;3.45;;;;;;;;;;1794145;79;21075;-66
2022/11/18 03:49:59;;;;;;;10.13;4.00;;;;;;;;;;1782717;80;21497;-67
2022/11/18 03:52:27;;;;;;;6.20;3.62;;;;;;;;;;1810928;78;21032;-67
2022/11/18 03:54:53;;;;;;;6.12;3.55;;;;;;;;;;1810628;78;20996;-67
2022/11/18 03:57:22;;;;;;;4.53;2.90;;;;;;;;;;1807550;78;21071;-68
2022/11/18 03:59:50;;;;;;;5.30;3.22;;;;;;;;;;1776523;80;21027;-68
2022/11/18 04:02:19;;;;;;;6.45;3.30;;;;;;;;;;1770231;81;22164;-67
2022/11/18 04:04:46;;;;;;;6.08;3.45;;;;;;;;;;1819304;78;21069;-67
2022/11/18 04:07:15;;;;;;;4.85;3.58;;;;;;;;;;1776582;81;20985;-67
2022/11/18 04:09:42;;;;;;;4.37;3.12;;;;;;;;;;1775924;80;21053;-68
2022/11/18 04:12:10;;;;;;;5.05;3.33;;;;;;;;;;1732577;81;21012;-68
2022/11/18 04:14:37;;;;;;;5.65;3.40;;;;;;;;;;1785192;80;21052;-68
2022/11/18 04:17:05;;;;;;;5.10;3.77;;;;;;;;;;1764633;81;21060;-67
2022/11/18 04:19:31;;;;;;;7.53;4.03;;;;;;;;;;1763411;81;21491;-67
2022/11/18 04:21:58;;;;;;;5.70;3.20;;;;;;;;;;1774893;80;21101;-67
2022/11/18 04:24:24;;;;;;;5.20;3.33;;;;;;;;;;1766119;80;21059;-67
2022/11/18 04:26:51;;;;;;;5.50;3.37;;;;;;;;;;1772911;81;21045;-66
2022/11/18 04:29:18;;;;;;;5.15;3.52;;;;;;;;;;1793445;79;21044;-67
2022/11/18 04:31:44;;;;;;;7.33;4.33;;;;;;;;;;1782375;79;21047;-67
2022/11/18 04:34:10;;;;;;;5.08;3.40;;;;;;;;;;1795177;80;21057;-67
2022/11/18 04:36:36;;;;;;;6.95;4.00;;;;;;;;;;1757377;81;21031;-67
2022/11/18 04:39:03;;;;;;;5.60;3.72;;;;;;;;;;1763213;81;21067;-67
2022/11/18 04:44:14;;;;;;;6.55;3.83;;;;;;;;;;1763393;81;21582;-67
2022/11/18 04:46:43;;;;;;;5.58;3.80;;;;;;;;;;1786243;80;21048;-69
2022/11/18 04:49:12;;;;;;;4.80;3.80;;;;;;;;;;1782509;80;21641;-68
2022/11/18 04:51:39;;;;;;;6.17;3.95;;;;;;;;;;1757183;82;21028;-69
2022/11/18 04:54:07;;;;;;;5.12;3.72;;;;;;;;;;1763797;80;21068;-69
2022/11/18 04:56:33;;;;;;;7.12;4.15;;;;;;;;;;1782858;80;22370;-68
2022/11/18 04:59:02;;;;;;;6.30;3.72;;;;;;;;;;1779298;80;21018;-67
2022/11/18 05:01:28;;;;;;;6.75;3.25;;;;;;;;;;1757519;81;21088;-68
2022/11/18 05:03:54;;;;;;;6.45;3.80;;;;;;;;;;1773622;80;21080;-68
2022/11/18 05:06:21;;;;;;;5.12;3.55;;;;;;;;;;1811928;78;21008;-67
2022/11/18 05:08:47;;;;;;;5.35;3.55;;;;;;;;;;1818236;78;21031;-68
2022/11/18 05:14:00;;;;;;;5.45;3.45;;;;;;;;;;1794787;79;21012;-70
2022/11/18 05:16:28;;;;;;;5.97;3.67;;;;;;;;;;1779164;79;20992;-69
2022/11/18 05:19:03;;;;;;;7.33;4.00;;;;;;;;;;1799471;79;21060;-70
2022/11/18 05:21:31;;;;;;;6.70;4.08;;;;;;;;;;1802629;79;21471;-68
2022/11/18 05:24:00;;;;;;;7.37;4.05;;;;;;;;;;1804258;79;21526;-69
2022/11/18 05:26:27;;;;;;;6.37;3.85;;;;;;;;;;1802948;79;21049;-69
2022/11/18 05:28:55;;;;;;;7.62;4.55;;;;;;;;;;1797784;79;21061;-69
2022/11/18 05:31:22;;;;;;;9.63;4.53;;;;;;;;;;1799450;79;21539;-69
2022/11/18 05:33:48;;;;;;;8.10;4.03;;;;;;;;;;1800712;79;21008;-69
2022/11/18 05:36:15;;;;;;;7.03;3.72;;;;;;;;;;1800940;79;21572;-69
2022/11/18 05:38:42;;;;;;;6.83;4.00;;;;;;;;;;1804008;79;21058;-69
2022/11/18 05:41:09;;;;;;;6.37;3.85;;;;;;;;;;1802662;78;21000;-69
2022/11/18 05:43:36;;;;;;;6.08;3.72;;;;;;;;;;1789706;80;21479;-68
2022/11/18 05:46:02;;;;;;;7.83;3.67;;;;;;;;;;1792303;80;21031;-68
2022/11/18 05:48:29;;;;;;;6.55;4.03;;;;;;;;;;1796055;80;21041;-68
2022/11/18 05:50:55;;;;;;;7.37;4.87;;;;;;;;;;1795797;80;21002;-69
2022/11/18 05:53:22;;;;;;;9.75;5.80;;;;;;;;;;1796315;80;21085;-69
2022/11/18 05:56:00;;;;;;;7.42;4.65;;;;;;;;;;1785389;80;21000;-68
2022/11/18 05:58:27;;;;;;;7.05;4.72;;;;;;;;;;1774150;81;21055;-67
2022/11/18 06:00:54;;;;;;;9.53;4.72;;;;;;;;;;1800311;79;21453;-68
2022/11/18 06:03:22;;;;;;;8.25;4.72;;;;;;;;;;1805992;79;21086;-68
2022/11/18 06:05:48;;;;;;;7.83;4.53;;;;;;;;;;1805764;78;20934;-68
2022/11/18 06:08:15;;;;;;;6.53;4.25;;;;;;;;;;1805501;79;21039;-67
2022/11/18 06:10:41;;;;;;;7.60;4.42;;;;;;;;;;1804841;79;21014;-68
2022/11/18 06:13:08;;;;;;;6.92;4.22;;;;;;;;;;1806714;78;20992;-68
2022/11/18 06:15:36;;;;;;;7.55;4.47;;;;;;;;;;1814109;78;20996;-68
2022/11/18 06:18:05;;;;;;;7.70;4.87;;;;;;;;;;1804683;78;21087;-68
2022/11/18 06:20:31;;;;;;;7.55;4.37;;;;;;;;;;1799639;79;21027;-69
2022/11/18 06:23:00;;;;;;;5.67;3.92;;;;;;;;;;1752109;81;21059;-67
2022/11/18 06:25:27;;;;;;;7.17;4.60;;;;;;;;;;1804347;78;21028;-69
2022/11/18 06:27:53;;;;;;;5.97;3.85;;;;;;;;;;1797580;78;20987;-69
2022/11/18 06:30:20;;;;;;;9.55;4.95;;;;;;;;;;1809433;78;21501;-68
2022/11/18 06:32:46;;;;;;;6.33;4.20;;;;;;;;;;1807148;78;21065;-69
2022/11/18 06:35:12;;;;;;;7.45;4.17;;;;;;;;;;1797668;79;21059;-68
2022/11/18 06:37:38;;;;;;;6.30;4.50;;;;;;;;;;1768229;79;21066;-68
2022/11/18 06:40:07;;;;;;;5.90;4.22;;;;;;;;;;1807537;78;21002;-68
2022/11/18 06:45:20;;;;;;;7.20;4.80;;;;;;;;;;1804989;78;21003;-68
2022/11/18 06:47:47;;;;;;;8.00;4.42;;;;;;;;;;1804871;79;21067;-68
2022/11/18 06:50:13;;;;;;;7.78;4.80;;;;;;;;;;1806200;79;21085;-69
2022/11/18 06:53:00;;;;;;;9.88;5.05;;;;;;;;;;1799430;78;21017;-68
2022/11/18 06:55:26;;;;;;;11.10;4.62;;;;;;;;;;1798136;79;21328;-69
2022/11/18 06:57:55;;;;;;;9.93;4.83;;;;;;;;;;1806025;79;21051;-69
2022/11/18 07:00:21;;;;;;;9.35;4.35;;;;;;;;;;1803977;78;20999;-68
2022/11/18 07:02:49;;;;;;;11.97;6.03;;;;;;;;;;1802755;79;21211;-69
2022/11/18 07:05:16;;;;;;;11.30;5.17;;;;;;;;;;1776141;80;21624;-68
2022/11/18 07:07:43;;;;;;;12.00;6.10;;;;;;;;;;1756969;81;21077;-69
2022/11/18 07:10:10;;;;;;;8.10;4.53;;;;;;;;;;1759141;80;21024;-68
2022/11/18 07:12:37;;;;;;;19.75;16.17;;;;;;;;;;1788455;79;21048;-69
2022/11/18 07:15:04;;;;;;;9.78;6.97;;;;;;;;;;1763422;81;21000;-69
2022/11/18 07:17:31;;;;;;;8.25;5.40;;;;;;;;;;1788706;80;21591;-69
2022/11/18 07:19:57;;;;;;;8.83;5.85;;;;;;;;;;1784748;80;21113;-67
2022/11/18 07:22:24;;;;;;;9.93;5.53;;;;;;;;;;1794821;80;21024;-68
2022/11/18 07:24:51;;;;;;;14.23;5.85;;;;;;;;;;1763410;81;22157;-68
2022/11/18 07:27:17;;;;;;;11.05;5.83;;;;;;;;;;1814741;79;21049;-69
2022/11/18 07:29:43;;;;;;;8.90;5.05;;;;;;;;;;1813233;79;21009;-69
2022/11/18 07:32:10;;;;;;;12.98;7.00;;;;;;;;;;1780668;80;21037;-69
2022/11/18 07:34:36;;;;;;;10.88;6.17;;;;;;;;;;1781115;80;21021;-69
2022/11/18 07:37:02;;;;;;;12.45;6.17;;;;;;;;;;1793793;79;21012;-69
2022/11/18 07:39:29;;;;;;;10.68;6.22;;;;;;;;;;1789867;80;21044;-69
2022/11/18 07:41:56;;;;;;;10.08;5.70;;;;;;;;;;1786864;80;21555;-68
2022/11/18 07:44:22;;;;;;;8.53;5.08;;;;;;;;;;1756561;81;21078;-68
2022/11/18 07:46:48;;;;;;;9.25;5.42;;;;;;;;;;1762719;80;21025;-67
2022/11/18 07:49:15;;;;;;;9.20;6.30;;;;;;;;;;1755814;80;21032;-68
2022/11/18 07:51:41;;;;;;;11.20;6.55;;;;;;;;;;1792512;78;21461;-68
2022/11/18 07:54:11;;;;;;;13.43;5.87;;;;;;;;;;1749627;80;21049;-69
2022/11/18 07:56:38;;;;;;;13.32;6.90;;;;;;;;;;1770477;80;21007;-67
2022/11/18 07:59:04;;;;;;;11.30;6.83;;;;;;;;;;1755117;80;21455;-69
2022/11/18 08:01:30;;;;;;;11.10;7.15;;;;;;;;;;1788819;80;21520;-69
2022/11/18 08:03:57;;;;;;;11.35;5.92;;;;;;;;;;1787693;80;21081;-68
2022/11/18 08:06:23;;;;;;;49.80;17.42;;;;;;;;;;1787497;80;21039;-69
2022/11/18 08:08:49;;;;;;;75.28;24.50;;;;;;;;;;1762211;80;21003;-69
2022/11/18 08:11:18;;;;;;;96.40;34.90;;;;;;;;;;1763559;80;21021;-68
2022/11/18 08:13:45;;;;;;;35.25;14.05;;;;;;;;;;1797377;78;21047;-68
2022/11/18 08:16:13;;;;;;;21.87;9.90;;;;;;;;;;1780820;80;21504;-68
2022/11/18 08:18:41;;;;;;;15.38;7.40;;;;;;;;;;1794118;79;21546;-70
2022/11/18 08:21:07;;;;;;;10.58;6.40;;;;;;;;;;1769616;81;21064;-67
2022/11/18 08:23:34;;;;;;;13.22;6.37;;;;;;;;;;1802122;79;20964;-67
2022/11/18 08:26:06;;;;;;;10.90;5.90;;;;;;;;;;1783044;79;21035;-71
2022/11/18 08:28:33;;;;;;;8.90;5.47;;;;;;;;;;1772248;80;20927;-72
2022/11/18 08:30:59;;;;;;;11.73;6.08;;;;;;;;;;1778432;79;21109;-72
2022/11/18 08:33:26;;;;;;;10.70;6.05;;;;;;;;;;1800569;80;20990;-74
2022/11/18 08:35:57;;;;;;;10.68;5.20;;;;;;;;;;1784725;79;21049;-71
2022/11/18 08:38:23;;;;;;;10.90;5.83;;;;;;;;;;1773986;78;21060;-70
2022/11/18 08:40:49;;;;;;;15.63;5.75;;;;;;;;;;1769820;80;21017;-71
2022/11/18 08:43:15;;;;;;;11.63;6.10;;;;;;;;;;1775029;80;21590;-70
2022/11/18 08:45:42;;;;;;;8.73;5.42;;;;;;;;;;1781691;80;20970;-70
2022/11/18 08:48:08;;;;;;;12.88;6.08;;;;;;;;;;1769287;80;21110;-69
2022/11/18 08:50:39;;;;;;;11.63;5.92;;;;;;;;;;1765146;81;21023;-69
2022/11/18 08:53:05;;;;;;;8.70;5.20;;;;;;;;;;1799299;80;21008;-70
2022/11/18 08:55:31;;;;;;;9.93;5.45;;;;;;;;;;1760625;80;21018;-69
2022/11/18 08:57:57;;;;;;;23.50;9.38;;;;;;;;;;1766184;80;21024;-68
2022/11/18 09:00:23;;;;;;;17.48;6.70;;;;;;;;;;1766391;81;22143;-68
2022/11/18 09:02:49;;;;;;;12.78;6.42;;;;;;;;;;1793927;80;21071;-66
2022/11/18 09:05:16;;;;;;;11.08;6.42;;;;;;;;;;1791324;80;21491;-67
2022/11/18 09:07:43;;;;;;;16.87;4.95;;;;;;;;;;1794664;78;21035;-67
2022/11/18 09:10:09;;;;;;;14.13;6.42;;;;;;;;;;1797670;78;21110;-66
2022/11/18 09:12:36;;;;;;;15.70;7.55;;;;;;;;;;1794716;79;21051;-66
2022/11/18 09:15:03;;;;;;;10.43;5.92;;;;;;;;;;1791514;79;21039;-66
2022/11/18 09:17:31;;;;;;;11.93;5.15;;;;;;;;;;1795232;78;21118;-68
2022/11/18 09:19:57;;;;;;;7.55;5.17;;;;;;;;;;1803193;78;21063;-70
2022/11/18 09:22:24;;;;;;;9.63;5.08;;;;;;;;;;1804953;78;21012;-71
2022/11/18 09:24:51;;;;;;;10.63;5.60;;;;;;;;;;1803407;78;21031;-70
2022/11/18 09:27:17;;;;;;;10.63;5.97;;;;;;;;;;1759292;80;21633;-71
2022/11/18 09:29:45;;;;;;;8.38;5.10;;;;;;;;;;1766887;80;21055;-69
2022/11/18 09:32:12;;;;;;;7.12;4.95;;;;;;;;;;1773994;81;21548;-69
2022/11/18 09:34:38;;;;;;;8.18;5.37;;;;;;;;;;1784797;79;21047;-68
2022/11/18 09:37:05;;;;;;;12.93;6.75;;;;;;;;;;1771147;80;21600;-69
2022/11/18 09:39:35;;;;;;;8.45;5.00;;;;;;;;;;1781474;79;21009;-68
2022/11/18 09:42:07;;;;;;;12.15;5.87;;;;;;;;;;1771409;79;21098;-66
2022/11/18 09:44:35;;;;;;;10.65;5.45;;;;;;;;;;1782086;78;21047;-65
2022/11/18 09:47:04;;;;;;;14.33;7.47;;;;;;;;;;1796264;78;21052;-68
2022/11/18 09:49:35;;;;;;;18.55;9.50;;;;;;;;;;1761466;80;21051;-66
2022/11/18 09:52:04;;;;;;;8.45;5.40;;;;;;;;;;1774246;79;21085;-68
2022/11/18 09:54:33;;;;;;;10.13;5.30;;;;;;;;;;1825596;78;22052;-68
2022/11/18 09:57:00;;;;;;;12.03;5.75;;;;;;;;;;1804698;78;21063;-69
2022/11/18 09:59:27;;;;;;;10.28;5.50;;;;;;;;;;1806115;78;21020;-69
2022/11/18 10:01:54;;;;;;;8.85;4.83;;;;;;;;;;1806144;78;21083;-68
2022/11/18 10:04:20;;;;;;;9.45;4.85;;;;;;;;;;1806940;78;21031;-67
2022/11/18 10:06:47;;;;;;;11.50;5.70;;;;;;;;;;1802244;78;21487;-68
2022/11/18 10:09:18;;;;;;;8.40;4.75;;;;;;;;;;1805216;78;21075;-71
2022/11/18 10:11:46;;;;;;;26.27;10.08;;;;;;;;;;1769745;79;21152;-69
2022/11/18 10:14:16;;;;;;;11.63;6.12;;;;;;;;;;1801883;78;20980;-68
2022/11/18 10:16:47;;;;;;;8.10;5.37;;;;;;;;;;1800231;78;21055;-66
2022/11/18 10:19:16;;;;;;;12.20;6.37;;;;;;;;;;1792906;80;21000;-66
2022/11/18 10:21:47;;;;;;;9.25;5.58;;;;;;;;;;1781820;79;21035;-67
2022/11/18 10:24:18;;;;;;;10.50;5.37;;;;;;;;;;1755661;79;21192;-71
2022/11/18 10:26:44;;;;;;;9.30;5.28;;;;;;;;;;1804434;78;21049;-66
2022/11/18 10:29:12;;;;;;;5.87;4.30;;;;;;;;;;1763589;79;21012;-61
2022/11/18 10:31:38;;;;;;;8.23;5.37;;;;;;;;;;1795977;78;21019;-62
2022/11/18 10:34:08;;;;;;;7.08;4.50;;;;;;;;;;1794004;78;21039;-62
2022/11/18 10:36:36;;;;;;;8.63;5.47;;;;;;;;;;1805466;79;21015;-62
2022/11/18 10:39:12;;;;;;;7.20;4.67;;;;;;;;;;1810778;78;21027;-63
2022/11/18 10:41:44;;;;;;;8.68;5.70;;;;;;;;;;1817345;78;22128;-62
2022/11/18 10:44:31;;;;;;;10.90;5.67;;;;;;;;;;1801359;78;21029;-63
2022/11/18 10:47:16;;;;;;;8.95;4.87;;;;;;;;;;1806400;78;21027;-62
2022/11/18 10:49:41;;;;;;;10.05;5.55;;;;;;;;;;1807647;78;21044;-64
2022/11/18 10:52:10;;;;;;;9.68;5.55;;;;;;;;;;1803925;78;21562;-62
2022/11/18 10:54:36;;;;;;;10.10;5.62;;;;;;;;;;1807582;78;20996;-62
2022/11/18 10:57:04;;;;;;;10.03;4.85;;;;;;;;;;1796562;78;21072;-63
2022/11/18 10:59:35;;;;;;;7.20;4.78;;;;;;;;;;1800255;79;21015;-62
2022/11/18 11:02:03;;;;;;;8.60;4.83;;;;;;;;;;1798503;78;21182;-63
2022/11/18 11:04:29;;;;;;;9.30;4.83;;;;;;;;;;1801176;79;21067;-63
2022/11/18 11:06:57;;;;;;;11.75;6.60;;;;;;;;;;1805330;79;21515;-63
2022/11/18 11:09:25;;;;;;;10.72;5.90;;;;;;;;;;1803985;79;21039;-63
2022/11/18 11:11:58;;;;;;;11.05;5.90;;;;;;;;;;1795966;79;21539;-63
2022/11/18 11:14:25;;;;;;;;;;;;;;;;;;1805344;78;21039;-61
2022/11/18 11:17:08;;;;;;;11.20;6.00;;;;;;;;;;1777743;79;20151;-63
2022/11/18 11:19:35;;;;;;;;;;;;;;;;;;1773032;80;21603;-64
2022/11/18 11:22:01;;;;;;;13.93;8.60;;;;;;;;;;1765887;79;20129;-63
2022/11/18 11:24:28;;;;;;;14.68;8.55;;;;;;;;;;1801466;79;21026;-64
2022/11/18 11:26:59;;;;;;;9.38;5.55;;;;;;;;;;1800849;79;21039;-62
2022/11/18 11:29:33;;;;;;;13.20;6.15;;;;;;;;;;1773466;79;21518;-63
2022/11/18 11:32:02;;;;;;;9.43;6.65;;;;;;;;;;1760637;79;21044;-63
2022/11/18 11:34:47;;;;;;;11.95;6.17;;;;;;;;;;1774231;79;21052;-63
2022/11/18 11:37:19;;;;;;;11.10;5.95;;;;;;;;;;1802936;79;21527;-62
2022/11/18 11:39:47;;;;;;;11.93;6.45;;;;;;;;;;1778375;79;21098;-63
2022/11/18 11:42:30;;;;;;;12.43;7.15;;;;;;;;;;1804190;78;21522;-63
2022/11/18 11:45:15;;;;;;;9.53;5.47;;;;;;;;;;1805058;78;22060;-63
2022/11/18 11:48:00;;;;;;;6.67;4.62;;;;;;;;;;1805354;79;21339;-63
2022/11/18 11:50:28;;;;;;;8.35;5.08;;;;;;;;;;1803946;78;21024;-63
2022/11/18 11:52:56;;;;;;;9.20;5.53;;;;;;;;;;1782605;80;21524;-63
2022/11/18 11:55:25;;;;;;;8.20;4.78;;;;;;;;;;1774062;79;20972;-63
2022/11/18 11:57:53;;;;;;;12.58;5.60;;;;;;;;;;1805621;78;21014;-64
2022/11/18 12:00:19;;;;;;;12.15;6.25;;;;;;;;;;1806428;78;21003;-64
2022/11/18 12:02:50;;;;;;;23.10;9.28;;;;;;;;;;1807730;78;21138;-63
2022/11/18 12:05:33;;;;;;;49.88;17.17;;;;;;;;;;1772912;79;21035;-64
2022/11/18 12:08:00;;;;;;;36.30;12.15;;;;;;;;;;1793479;79;21008;-63
2022/11/18 12:10:31;;;;;;;30.75;11.97;;;;;;;;;;1799792;80;21001;-64
2022/11/18 12:13:11;;;;;;;19.10;7.62;;;;;;;;;;1792919;78;21067;-63
2022/11/18 12:15:39;;;;;;;32.30;12.35;;;;;;;;;;1786232;80;21051;-62
2022/11/18 12:18:25;;;;;;;37.23;13.35;;;;;;;;;;1794441;79;22079;-63
2022/11/18 12:20:53;;;;;;;19.73;7.60;;;;;;;;;;1766275;81;21124;-62
2022/11/18 12:23:22;;;;;;;24.85;9.30;;;;;;;;;;1796526;80;21514;-63
2022/11/18 12:25:51;;;;;;;26.37;9.58;;;;;;;;;;1795849;80;21535;-64
2022/11/18 12:28:23;;;;;;;18.42;7.78;;;;;;;;;;1754955;80;21568;-62
2022/11/18 12:30:49;;;;;;;39.83;14.18;;;;;;;;;;1771226;80;21044;-64
2022/11/18 12:33:16;;;;;;;39.20;14.75;;;;;;;;;;1772919;80;21075;-64
2022/11/18 12:35:47;;;;;;;25.65;9.20;;;;;;;;;;1775271;80;21036;-65
2022/11/18 12:38:27;;;;;;;14.55;6.97;;;;;;;;;;1760962;81;21377;-64
2022/11/18 12:40:53;;;;;;;12.65;7.10;;;;;;;;;;1773086;80;21037;-64
2022/11/18 12:43:46;;;;;;;15.65;7.08;;;;;;;;;;1764812;81;21028;-64
2022/11/18 12:46:31;;;;;;;9.75;5.10;;;;;;;;;;1761495;81;21096;-63
2022/11/18 12:49:00;;;;;;;10.65;4.80;;;;;;;;;;1797093;78;21024;-63
2022/11/18 12:51:38;;;;;;;10.72;6.05;;;;;;;;;;1793195;80;21034;-64
2022/11/18 12:54:06;;;;;;;9.88;5.40;;;;;;;;;;1785403;78;21012;-64
2022/11/18 12:56:34;;;;;;;9.43;4.97;;;;;;;;;;1780813;80;21634;-62
2022/11/18 12:59:00;;;;;;;9.20;5.95;;;;;;;;;;1785150;80;21048;-62
2022/11/18 13:01:27;;;;;;;10.58;5.80;;;;;;;;;;1775653;79;21073;-63
2022/11/18 13:04:07;;;;;;;10.63;6.15;;;;;;;;;;1773482;80;20968;-61
2022/11/18 13:06:34;;;;;;;10.20;5.45;;;;;;;;;;1769641;80;21449;-62
2022/11/18 13:09:01;;;;;;;8.60;5.40;;;;;;;;;;1799676;79;21036;-63
2022/11/18 13:11:45;;;;;;;9.75;6.20;;;;;;;;;;1765380;80;21488;-62
2022/11/18 13:19:45;;;;;;;9.75;4.80;;;;;;;;;;1743321;80;21051;-62
2022/11/18 13:24:58;;;;;;;13.55;6.42;;;;;;;;;;1800149;80;21011;-62
2022/11/18 13:28:57;;;;;;;15.58;8.68;;;;;;;;;;1808167;77;24562;-63
2022/11/18 13:31:23;;;;;;;;;;;;;;;;;;1782955;78;21610;-63
2022/11/18 13:33:49;;;;;;;24.50;13.38;;;;;;;;;;1780509;78;20172;-63
2022/11/18 13:36:20;;;;;;;21.25;12.03;;;;;;;;;;1783554;80;21021;-63
2022/11/18 13:38:56;;;;;;;15.03;8.50;;;;;;;;;;1776721;78;21047;-64
2022/11/18 13:41:23;;;;;;;12.47;6.47;;;;;;;;;;1732707;81;21056;-63
2022/11/18 13:43:50;;;;;;;11.08;6.05;;;;;;;;;;1728094;82;21029;-63
2022/11/18 13:46:18;;;;;;;10.80;5.45;;;;;;;;;;1730068;81;20994;-63
2022/11/18 13:48:49;;;;;;;10.85;5.50;;;;;;;;;;1719758;82;21126;-63
2022/11/18 13:51:15;;;;;;;12.00;5.97;;;;;;;;;;1719205;82;21049;-62
2022/11/18 13:53:43;;;;;;;10.00;5.97;;;;;;;;;;1724865;82;21026;-64
2022/11/18 13:56:16;;;;;;;10.68;5.65;;;;;;;;;;1735263;82;21025;-64
2022/11/18 13:58:43;;;;;;;11.48;5.55;;;;;;;;;;1726021;82;21008;-64
2022/11/18 14:01:20;;;;;;;16.55;7.33;;;;;;;;;;1728671;82;21093;-64
2022/11/18 14:03:48;;;;;;;10.55;6.72;;;;;;;;;;1726248;81;21016;-62
2022/11/18 14:06:25;;;;;;;22.05;10.18;;;;;;;;;;1728861;82;21608;-62
2022/11/18 14:08:51;;;;;;;21.75;10.30;;;;;;;;;;1692226;82;21069;-65
2022/11/18 14:11:34;;;;;;;16.90;8.58;;;;;;;;;;1709965;81;21017;-64
2022/11/18 14:14:01;;;;;;;13.50;6.83;;;;;;;;;;1714911;81;21051;-62
2022/11/18 14:16:34;;;;;;;11.25;5.90;;;;;;;;;;1720570;82;21122;-62
2022/11/18 14:19:00;;;;;;;11.15;6.47;;;;;;;;;;1722400;82;21038;-63
2022/11/18 14:21:31;;;;;;;20.75;9.58;;;;;;;;;;1723697;81;21056;-63
2022/11/18 14:23:58;;;;;;;12.82;7.10;;;;;;;;;;1732416;82;22143;-62
2022/11/18 14:26:32;;;;;;;10.93;6.97;;;;;;;;;;1718055;82;21069;-63
2022/11/18 14:29:00;;;;;;;13.38;6.97;;;;;;;;;;1703400;83;21522;-62
2022/11/18 14:31:27;;;;;;;11.53;6.62;;;;;;;;;;1768015;80;21009;-64
2022/11/18 14:34:05;;;;;;;13.58;6.75;;;;;;;;;;1772130;79;22125;-65
2022/11/18 14:36:32;;;;;;;13.15;7.35;;;;;;;;;;1779228;80;21071;-63
2022/11/18 14:38:59;;;;;;;14.60;7.42;;;;;;;;;;1782602;79;21060;-62
2022/11/18 14:44:10;;;;;;;14.13;7.75;;;;;;;;;;1770703;79;21032;-63
2022/11/18 14:46:36;;;;;;;14.98;8.30;;;;;;;;;;1779708;79;22100;-66
2022/11/18 14:49:02;;;;;;;15.08;7.72;;;;;;;;;;1771280;80;21032;-66
2022/11/18 14:51:29;;;;;;;16.42;9.28;;;;;;;;;;1769128;79;21005;-66
2022/11/18 14:53:55;;;;;;;13.88;7.30;;;;;;;;;;1740441;82;21537;-66
2022/11/18 14:56:23;;;;;;;12.75;7.83;;;;;;;;;;1778074;79;21007;-65
2022/11/18 14:58:49;;;;;;;13.08;7.53;;;;;;;;;;1770664;80;21049;-66
2022/11/18 15:01:17;;;;;;;16.27;8.40;;;;;;;;;;1768017;80;21579;-65
2022/11/18 15:03:43;;;;;;;15.45;6.80;;;;;;;;;;1766352;80;21032;-66
2022/11/18 15:06:11;;;;;;;11.83;6.80;;;;;;;;;;1770747;80;21077;-66
2022/11/18 15:08:37;;;;;;;13.55;7.55;;;;;;;;;;1774528;80;21570;-66
2022/11/18 15:11:03;;;;;;;14.63;7.28;;;;;;;;;;1777401;80;21029;-65
2022/11/18 15:13:31;;;;;;;14.95;8.90;;;;;;;;;;1773878;80;21048;-63
2022/11/18 15:15:57;;;;;;;15.48;7.92;;;;;;;;;;1772090;80;21033;-63
2022/11/18 15:18:24;;;;;;;10.85;6.85;;;;;;;;;;1772181;80;21053;-64
2022/11/18 15:20:52;;;;;;;12.37;6.47;;;;;;;;;;1769212;80;21052;-65
2022/11/18 15:23:18;;;;;;;11.55;6.67;;;;;;;;;;1768227;80;21538;-64
2022/11/18 15:25:44;;;;;;;14.47;7.00;;;;;;;;;;1774348;80;21096;-65
2022/11/18 15:28:11;;;;;;;12.30;7.62;;;;;;;;;;1788022;80;21071;-64
2022/11/18 15:30:38;;;;;;;12.15;7.00;;;;;;;;;;1763207;80;21064;-65
2022/11/18 15:33:06;;;;;;;12.30;7.00;;;;;;;;;;1762213;79;21019;-64
2022/11/18 15:35:32;;;;;;;14.03;7.75;;;;;;;;;;1761643;80;21051;-64
2022/11/18 15:37:58;;;;;;;12.98;7.10;;;;;;;;;;1777916;80;21493;-64
2022/11/18 15:40:24;;;;;;;11.68;6.92;;;;;;;;;;1777982;80;21029;-64
2022/11/18 15:42:52;;;;;;;11.43;6.90;;;;;;;;;;1775818;80;21042;-63
2022/11/18 15:45:19;;;;;;;10.93;6.55;;;;;;;;;;1777930;80;21084;-65
2022/11/18 15:47:45;;;;;;;12.88;6.87;;;;;;;;;;1786696;80;21088;-65
2022/11/18 15:50:12;;;;;;;10.48;6.37;;;;;;;;;;1787422;80;20993;-63
2022/11/18 15:52:38;;;;;;;11.83;6.80;;;;;;;;;;1764294;78;21055;-63
2022/11/18 15:55:04;;;;;;;12.23;6.83;;;;;;;;;;1776463;80;20970;-63
2022/11/18 15:57:30;;;;;;;11.43;5.90;;;;;;;;;;1786765;80;22173;-63
2022/11/18 15:59:57;;;;;;;12.20;7.10;;;;;;;;;;1776549;79;21111;-63
2022/11/18 16:02:23;;;;;;;10.53;6.85;;;;;;;;;;1767100;80;21004;-64
2022/11/18 16:04:49;;;;;;;12.20;6.67;;;;;;;;;;1765483;80;22228;-63
2022/11/18 16:07:16;;;;;;;13.10;7.30;;;;;;;;;;1766195;79;21009;-63
2022/11/18 16:12:45;;;;;;;11.83;6.60;;;;;;;;;;1777625;78;21091;-64
2022/11/18 16:17:57;;;;;;;11.48;6.83;;;;;;;;;;1776642;78;21915;-62
2022/11/18 16:20:26;;;;;;;13.03;7.33;;;;;;;;;;1775002;78;21027;-63
2022/11/18 16:22:53;;;;;;;9.55;5.97;;;;;;;;;;1772089;78;21076;-63
2022/11/18 16:25:20;;;;;;;11.85;6.72;;;;;;;;;;1774823;78;21045;-63